AKST,Max TemperatureF,Mean TemperatureF,Min TemperatureF,Max Dew PointF,MeanDew PointF,Min DewpointF,Max Humidity, Mean Humidity, Min Humidity, Max Sea Level PressureIn, Mean Sea Level PressureIn, Min Sea Level PressureIn, Max VisibilityMiles, Mean VisibilityMiles, Min VisibilityMiles, Max Wind SpeedMPH, Mean Wind SpeedMPH, Max Gust SpeedMPH,PrecipitationIn, CloudCover, Events, WindDirDegrees
2014-1-1,30,24,19,27,21,14,93,83,75,29.51,29.28,29.14,10,8,2,7,3,,0.01,5,Snow,88
2014-1-2,34,28,21,30,26,18,96,85,75,30.07,29.81,29.54,10,8,2,4,1,,0.00,6,Snow,319
2014-1-3,32,26,21,28,26,18,93,83,79,30.25,30.19,30.09,10,7,1,6,2,,0.03,8,Fog-Snow,350
2014-1-4,33,30,27,25,24,23,86,80,66,30.22,29.90,29.57,10,9,2,8,3,,0.01,8,Fog-Snow,17
2014-1-5,35,32,28,28,26,23,85,79,67,29.71,29.60,29.49,10,10,8,7,3,,0.02,7,Snow,331
2014-1-6,35,28,21,28,25,16,89,81,76,29.72,29.69,29.67,10,10,10,9,1,,0.00,6,,301
2014-1-7,27,23,19,23,18,14,88,82,78,29.68,29.55,29.42,10,10,10,5,1,,0.00,4,,75
2014-1-8,30,26,23,25,21,19,85,80,72,29.41,29.28,29.21,10,9,5,6,2,,0.00,8,Snow,25
2014-1-9,30,29,28,27,26,25,86,85,82,29.38,29.27,29.21,10,6,2,6,2,,0.00,8,Snow,169
2014-1-10,28,26,23,25,22,18,93,84,78,29.42,29.39,29.32,10,5,1,5,1,,0.00,8,Snow,347
2014-1-11,23,20,17,19,17,11,93,85,77,29.31,29.19,29.13,10,5,0,8,2,,0.00,8,Fog-Snow,357
2014-1-12,18,14,12,12,9,5,86,77,73,29.40,29.20,29.11,10,6,1,9,5,,0.04,8,Snow,4
2014-1-13,21,19,17,17,14,11,86,81,74,29.61,29.47,29.11,10,8,2,9,4,,0.03,8,Snow,13
2014-1-14,37,26,15,27,20,10,86,77,55,29.56,29.11,28.86,10,7,0,20,6,32,0.09,7,Fog-Snow,148
2014-1-15,35,30,26,29,25,18,89,78,57,29.68,29.64,29.59,10,6,1,12,7,24,0.09,7,Snow,348
2014-1-16,33,30,28,30,28,25,93,88,82,29.72,29.55,29.38,10,4,0,9,3,,0.15,8,Fog-Snow,18
2014-1-17,48,38,28,34,29,26,93,76,42,29.60,29.29,29.08,10,10,6,16,6,37,0.06,7,Rain,22
2014-1-18,42,38,35,32,28,22,81,70,57,29.78,29.38,29.08,10,8,3,16,8,25,0.11,7,Rain-Snow,199
2014-1-19,35,32,28,25,24,22,79,74,60,29.89,29.83,29.78,10,10,6,6,3,,0.00,7,Snow,308
2014-1-20,33,30,27,25,24,22,85,76,70,29.88,29.80,29.62,10,10,10,10,3,,0.00,6,,271
2014-1-21,43,36,28,34,28,23,87,74,65,29.68,29.53,29.42,10,10,10,17,5,26,0.00,7,Rain,278
2014-1-22,37,34,32,34,32,28,93,88,81,29.70,29.59,29.53,10,10,5,10,2,,0.09,7,Rain,297
2014-1-23,41,38,35,36,35,34,100,92,79,29.78,29.65,29.49,10,7,2,6,2,,0.40,8,Rain,273
2014-1-24,45,40,35,37,35,33,100,87,71,30.15,29.88,29.58,10,10,8,7,4,17,0.03,6,Rain,325
2014-1-25,37,33,30,34,31,28,96,91,86,30.15,30.08,29.99,10,10,2,5,1,,0.06,2,Rain,76
2014-1-26,42,36,30,33,31,27,89,83,67,30.03,29.98,29.91,10,10,10,12,3,16,0.00,4,,254
2014-1-27,42,35,28,32,30,25,88,78,65,29.90,29.78,29.70,10,10,10,7,2,,0.00,3,,73
2014-1-28,43,36,28,33,31,26,89,80,65,30.06,29.98,29.87,10,10,10,5,2,,0.00,4,Rain,42
2014-1-29,33,27,19,27,23,17,91,84,70,30.16,30.11,30.07,10,10,10,6,2,,0.00,1,,31
2014-1-30,28,22,16,22,17,12,89,82,69,30.24,30.21,30.17,10,10,8,5,1,,0.00,0,,22
2014-1-31,23,18,12,19,13,9,93,84,74,30.31,30.26,30.23,10,8,0,7,1,,0.00,2,Fog,33